createdAt,value
2018-03-11T00:00:44.793Z,15.10
2018-03-11T00:03:11.929Z,15.10
2018-03-11T00:05:39.101Z,15.00
2018-03-11T00:08:06.249Z,15.00
2018-03-11T00:10:33.384Z,15.00
2018-03-11T00:13:01.317Z,15.00
2018-03-11T00:15:28.453Z,14.90
2018-03-11T00:17:55.635Z,15.00
2018-03-11T00:20:22.779Z,15.10
2018-03-11T00:22:49.913Z,15.10
2018-03-11T00:25:17.051Z,15.00
2018-03-11T00:27:44.186Z,15.10
2018-03-11T00:30:12.090Z,15.10
2018-03-11T00:32:39.234Z,15.10
2018-03-11T00:35:06.386Z,15.10
2018-03-11T00:37:34.314Z,15.10
2018-03-11T00:40:01.449Z,15.10
2018-03-11T00:42:28.590Z,15.00
2018-03-11T00:44:55.730Z,15.00
2018-03-11T00:47:22.909Z,15.00
2018-03-11T00:49:50.041Z,15.10
2018-03-11T00:52:17.180Z,15.20
2018-03-11T00:54:44.316Z,15.30
2018-03-11T00:57:11.458Z,15.40
2018-03-11T00:59:38.608Z,15.40
2018-03-11T01:02:05.749Z,15.50
2018-03-11T01:04:32.897Z,15.40
2018-03-11T01:07:00.804Z,15.40
2018-03-11T01:09:27.944Z,15.40
2018-03-11T01:11:55.113Z,15.40
2018-03-11T01:14:22.253Z,15.30
2018-03-11T01:16:49.397Z,15.30
2018-03-11T01:19:16.538Z,15.30
2018-03-11T01:21:43.678Z,15.30
2018-03-11T01:24:10.818Z,15.20
2018-03-11T01:26:38.722Z,15.20
2018-03-11T01:29:05.861Z,15.20
2018-03-11T01:31:32.997Z,15.20
2018-03-11T01:34:00.177Z,15.10
2018-03-11T01:36:27.319Z,15.10
2018-03-11T01:38:54.498Z,15.10
2018-03-11T01:41:22.552Z,15.10
2018-03-11T01:43:49.695Z,15.10
2018-03-11T01:46:16.828Z,15.10
2018-03-11T01:48:43.965Z,15.20
2018-03-11T01:51:11.905Z,15.20
2018-03-11T01:53:39.037Z,15.20
2018-03-11T01:56:06.179Z,15.20
2018-03-11T01:58:33.322Z,15.20
2018-03-11T02:01:00.468Z,15.10
2018-03-11T02:03:27.609Z,15.10
2018-03-11T02:05:54.750Z,15.10
2018-03-11T02:08:21.886Z,15.10
2018-03-11T02:10:49.798Z,15.00
2018-03-11T02:13:16.939Z,15.00
2018-03-11T02:15:44.077Z,15.00
2018-03-11T02:18:11.208Z,15.10
2018-03-11T02:20:39.116Z,15.10
2018-03-11T02:23:06.286Z,15.10
2018-03-11T02:25:33.424Z,15.20
2018-03-11T02:28:00.567Z,15.10
2018-03-11T02:30:27.709Z,15.10
2018-03-11T02:32:54.854Z,15.10
2018-03-11T02:35:21.994Z,15.10
2018-03-11T02:37:49.142Z,15.10
2018-03-11T02:40:16.277Z,15.10
2018-03-11T02:42:44.185Z,15.00
2018-03-11T02:45:11.360Z,15.00
2018-03-11T02:47:38.495Z,15.00
2018-03-11T02:50:05.639Z,15.00
2018-03-11T02:52:32.768Z,15.10
2018-03-11T02:54:59.904Z,15.10
2018-03-11T02:57:27.800Z,15.10
2018-03-11T02:59:54.933Z,15.10
2018-03-11T03:02:22.073Z,15.10
2018-03-11T03:04:49.974Z,15.00
2018-03-11T03:07:17.113Z,15.00
2018-03-11T03:09:44.257Z,15.10
2018-03-11T03:12:11.389Z,15.10
2018-03-11T03:14:39.289Z,14.90
2018-03-11T03:17:06.438Z,14.90
2018-03-11T03:19:33.607Z,14.90
2018-03-11T03:22:01.173Z,15.00
2018-03-11T03:24:29.143Z,15.10
2018-03-11T03:26:56.281Z,15.20
2018-03-11T03:29:23.455Z,15.30
2018-03-11T03:31:51.410Z,15.40
2018-03-11T03:34:19.464Z,15.40
2018-03-11T03:36:46.606Z,15.40
2018-03-11T03:39:13.747Z,15.40
2018-03-11T03:41:40.884Z,15.40
2018-03-11T03:44:08.788Z,15.30
2018-03-11T03:46:35.936Z,15.30
2018-03-11T03:49:03.081Z,15.30
2018-03-11T03:51:30.212Z,15.30
2018-03-11T03:53:58.118Z,15.30
2018-03-11T03:56:25.266Z,15.20
2018-03-11T03:58:52.397Z,15.20
2018-03-11T04:01:19.528Z,15.20
2018-03-11T04:03:48.381Z,15.20
2018-03-11T04:06:15.525Z,15.10
2018-03-11T04:08:42.664Z,15.10
2018-03-11T04:11:09.804Z,15.10
2018-03-11T04:13:36.945Z,15.20
2018-03-11T04:16:04.088Z,15.20
2018-03-11T04:18:32.792Z,15.10
2018-03-11T04:20:59.961Z,15.10
2018-03-11T04:23:27.097Z,15.10
2018-03-11T04:25:54.236Z,15.10
2018-03-11T04:28:21.408Z,15.10
2018-03-11T04:30:48.549Z,15.10
2018-03-11T04:33:15.707Z,15.10
2018-03-11T04:35:42.839Z,15.10
2018-03-11T04:38:09.976Z,15.10
2018-03-11T04:40:37.881Z,15.00
2018-03-11T04:43:05.053Z,15.00
2018-03-11T04:45:32.185Z,15.00
2018-03-11T04:48:00.232Z,15.00
2018-03-11T04:50:28.172Z,15.10
2018-03-11T04:52:56.079Z,15.10
2018-03-11T04:55:23.216Z,15.10
2018-03-11T04:57:50.347Z,15.10
2018-03-11T05:00:18.248Z,15.10
2018-03-11T05:02:45.389Z,15.10
2018-03-11T05:05:13.289Z,15.10
2018-03-11T05:07:41.359Z,15.10
2018-03-11T05:10:09.380Z,15.10
2018-03-11T05:12:37.325Z,15.00
2018-03-11T05:15:04.497Z,15.00
2018-03-11T05:17:32.404Z,15.00
2018-03-11T05:19:59.541Z,15.00
2018-03-11T05:22:26.672Z,15.10
2018-03-11T05:24:55.486Z,15.00
2018-03-11T05:27:22.620Z,15.00
2018-03-11T05:29:50.532Z,15.00
2018-03-11T05:32:17.673Z,15.00
2018-03-11T05:34:44.809Z,14.90
2018-03-11T05:37:11.942Z,14.90
2018-03-11T05:39:40.654Z,14.90
2018-03-11T05:42:08.736Z,14.90
2018-03-11T05:44:35.872Z,14.90
2018-03-11T05:47:03.021Z,14.80
2018-03-11T05:49:31.085Z,14.80
2018-03-11T05:51:59.127Z,14.90
2018-03-11T05:54:26.266Z,15.00
2018-03-11T05:56:53.401Z,15.20
2018-03-11T05:59:20.630Z,15.30
2018-03-11T06:01:47.749Z,15.30
2018-03-11T06:04:15.682Z,15.30
2018-03-11T06:06:43.657Z,15.30
2018-03-11T06:09:11.745Z,15.30
2018-03-11T06:11:39.778Z,15.20
2018-03-11T06:14:07.884Z,15.20
2018-03-11T06:16:35.817Z,15.20
2018-03-11T06:19:03.868Z,15.20
2018-03-11T06:21:31.001Z,15.10
2018-03-11T06:23:59.837Z,15.10
2018-03-11T06:26:27.046Z,15.10
2018-03-11T06:28:54.937Z,15.00
2018-03-11T06:31:22.075Z,15.00
2018-03-11T06:33:50.156Z,15.00
2018-03-11T06:36:18.133Z,15.10
2018-03-11T06:38:46.165Z,15.10
2018-03-11T06:41:14.836Z,15.10
2018-03-11T06:43:42.940Z,15.00
2018-03-11T06:46:11.787Z,15.00
2018-03-11T06:48:45.022Z,15.00
2018-03-11T06:51:12.937Z,15.00
2018-03-11T06:53:40.104Z,15.00
2018-03-11T06:56:07.236Z,15.00
2018-03-11T06:58:35.265Z,15.00
2018-03-11T07:01:03.968Z,15.00
2018-03-11T07:03:31.148Z,15.00
2018-03-11T07:05:58.281Z,15.00
2018-03-11T07:08:25.416Z,15.00
2018-03-11T07:10:53.397Z,15.00
2018-03-11T07:13:21.299Z,15.00
2018-03-11T07:15:49.252Z,15.00
2018-03-11T07:18:17.163Z,15.10
2018-03-11T07:20:44.293Z,15.10
2018-03-11T07:23:12.230Z,15.00
2018-03-11T07:25:39.360Z,15.00
2018-03-11T07:28:08.119Z,15.00
2018-03-11T07:30:35.257Z,15.00
2018-03-11T07:33:03.349Z,15.00
2018-03-11T07:35:31.325Z,15.00
2018-03-11T07:37:58.472Z,15.10
2018-03-11T07:40:25.653Z,15.10
2018-03-11T07:42:53.626Z,15.20
2018-03-11T07:45:20.758Z,15.20
2018-03-11T07:47:48.652Z,15.10
2018-03-11T07:50:15.798Z,15.00
2018-03-11T07:52:42.929Z,15.00
2018-03-11T07:55:10.835Z,15.00
2018-03-11T07:57:37.975Z,15.00
2018-03-11T08:00:05.113Z,15.00
2018-03-11T08:02:32.244Z,15.00
2018-03-11T08:05:00.149Z,15.10
2018-03-11T08:07:27.293Z,15.10
2018-03-11T08:09:54.425Z,15.20
2018-03-11T08:12:22.339Z,15.50
2018-03-11T08:14:49.478Z,15.40
2018-03-11T08:17:16.627Z,15.50
2018-03-11T08:19:43.757Z,15.50
2018-03-11T08:22:10.890Z,15.60
2018-03-11T08:24:39.702Z,15.50
2018-03-11T08:27:06.849Z,15.50
2018-03-11T08:29:33.986Z,15.50
2018-03-11T08:32:01.969Z,15.50
2018-03-11T08:34:29.100Z,15.50
2018-03-11T08:36:57.001Z,15.50
2018-03-11T08:39:24.246Z,15.50
2018-03-11T08:41:51.500Z,15.50
2018-03-11T08:44:18.675Z,15.50
2018-03-11T08:46:46.706Z,15.50
2018-03-11T08:49:14.685Z,15.50
2018-03-11T08:51:42.589Z,15.50
2018-03-11T08:54:09.726Z,15.50
2018-03-11T08:56:37.691Z,15.50
2018-03-11T08:59:04.830Z,15.50
2018-03-11T09:01:32.930Z,15.50
2018-03-11T09:04:00.069Z,15.50
2018-03-11T09:06:27.274Z,15.50
2018-03-11T09:08:54.410Z,15.50
2018-03-11T09:11:21.541Z,15.50
2018-03-11T09:13:49.682Z,15.50
2018-03-11T09:16:16.813Z,15.50
2018-03-11T09:18:45.654Z,15.50
2018-03-11T09:21:12.806Z,15.50
2018-03-11T09:23:40.028Z,15.40
2018-03-11T09:26:08.061Z,15.40
2018-03-11T09:28:35.977Z,15.40
2018-03-11T09:31:03.112Z,15.40
2018-03-11T09:33:30.285Z,15.50
2018-03-11T09:35:57.421Z,15.40
2018-03-11T09:38:24.591Z,15.40
2018-03-11T09:40:51.722Z,15.40
2018-03-11T09:43:19.827Z,15.40
2018-03-11T09:45:46.962Z,15.40
2018-03-11T09:48:14.125Z,15.50
2018-03-11T09:50:41.262Z,15.50
2018-03-11T09:53:08.449Z,15.50
2018-03-11T09:55:35.578Z,15.50
2018-03-11T09:58:02.712Z,15.50
2018-03-11T10:00:29.849Z,15.50
2018-03-11T10:02:56.986Z,15.60
2018-03-11T10:05:25.706Z,15.50
2018-03-11T10:07:53.748Z,15.50
2018-03-11T10:10:21.705Z,15.40
2018-03-11T10:12:48.843Z,15.40
2018-03-11T10:15:16.935Z,15.40
2018-03-11T10:17:45.745Z,15.50
2018-03-11T10:20:13.693Z,15.50
2018-03-11T10:22:42.505Z,15.60
2018-03-11T10:25:10.458Z,15.60
2018-03-11T10:27:38.356Z,15.80
2018-03-11T10:30:06.492Z,15.80
2018-03-11T10:32:35.291Z,15.90
2018-03-11T10:35:03.198Z,15.90
2018-03-11T10:37:30.329Z,15.80
2018-03-11T10:39:58.244Z,15.90
2018-03-11T10:42:25.378Z,15.90
2018-03-11T10:44:52.513Z,15.90
2018-03-11T10:47:20.453Z,15.90
2018-03-11T10:49:48.401Z,15.80
2018-03-11T10:52:16.468Z,15.80
2018-03-11T10:54:44.502Z,15.80
2018-03-11T10:57:12.577Z,15.70
2018-03-11T10:59:39.713Z,15.70
2018-03-11T11:02:13.440Z,15.80
2018-03-11T11:04:42.392Z,15.80
2018-03-11T11:07:11.062Z,15.80
2018-03-11T11:09:38.986Z,15.80
2018-03-11T11:12:06.153Z,15.80
2018-03-11T11:14:34.113Z,15.80
2018-03-11T11:17:02.102Z,15.70
2018-03-11T11:19:30.025Z,15.70
2018-03-11T11:21:57.197Z,15.80
2018-03-11T11:24:24.373Z,15.80
2018-03-11T11:26:51.505Z,15.80
2018-03-11T11:29:18.638Z,15.80
2018-03-11T11:31:46.689Z,15.90
2018-03-11T11:34:14.643Z,16.00
2018-03-11T11:36:44.145Z,16.20
2018-03-11T11:39:12.114Z,16.20
2018-03-11T11:41:39.249Z,16.30
2018-03-11T11:44:06.391Z,16.20
2018-03-11T11:46:33.569Z,16.20
2018-03-11T11:49:02.410Z,16.30
2018-03-11T11:51:30.457Z,16.30
2018-03-11T11:53:57.638Z,16.40
2018-03-11T11:56:25.589Z,16.40
2018-03-11T11:58:52.760Z,16.40
2018-03-11T12:01:19.893Z,16.40
2018-03-11T12:03:47.841Z,16.30
2018-03-11T12:06:15.753Z,16.10
2018-03-11T12:08:43.820Z,16.10
2018-03-11T12:11:10.953Z,16.00
2018-03-11T12:13:38.084Z,16.00
2018-03-11T12:16:05.987Z,15.90
2018-03-11T12:18:33.121Z,15.90
2018-03-11T12:21:00.261Z,15.90
2018-03-11T12:23:27.403Z,15.90
2018-03-11T12:25:55.309Z,15.90
2018-03-11T12:28:22.450Z,15.90
2018-03-11T12:30:49.584Z,15.90
2018-03-11T12:33:16.717Z,15.90
2018-03-11T12:35:44.616Z,15.80
2018-03-11T12:38:11.757Z,15.90
2018-03-11T12:40:38.900Z,15.80
2018-03-11T12:43:06.872Z,15.80
2018-03-11T12:45:34.006Z,15.80
2018-03-11T12:48:01.946Z,15.80
2018-03-11T12:50:29.147Z,15.80
2018-03-11T12:52:56.278Z,15.90
2018-03-11T12:55:24.177Z,15.90
2018-03-11T12:57:51.417Z,15.90
2018-03-11T13:00:19.498Z,15.80
2018-03-11T13:02:46.641Z,15.90
2018-03-11T13:05:13.794Z,15.80
2018-03-11T13:07:40.929Z,15.80
2018-03-11T13:10:08.825Z,15.80
2018-03-11T13:12:35.993Z,15.80
2018-03-11T13:15:03.941Z,15.80
2018-03-11T13:17:31.118Z,15.80
2018-03-11T13:20:04.073Z,15.80
2018-03-11T13:22:31.334Z,15.80
2018-03-11T13:24:58.477Z,15.80
2018-03-11T13:27:25.623Z,15.80
2018-03-11T13:29:54.457Z,15.90
2018-03-11T13:32:27.517Z,15.90
2018-03-11T13:34:54.658Z,15.90
2018-03-11T13:37:21.832Z,15.90
2018-03-11T13:39:54.777Z,15.80
2018-03-11T13:42:23.458Z,15.80
2018-03-11T13:44:57.341Z,15.90
2018-03-11T13:47:25.287Z,15.90
2018-03-11T13:49:53.329Z,16.00
2018-03-11T13:52:27.141Z,16.10
2018-03-11T13:54:55.190Z,16.10
2018-03-11T13:57:38.017Z,16.30
2018-03-11T14:00:06.690Z,16.40
2018-03-11T14:02:33.826Z,16.30
2018-03-11T14:05:01.744Z,16.40
2018-03-11T14:07:28.915Z,16.40
2018-03-11T14:09:56.992Z,16.40
2018-03-11T14:12:25.032Z,16.40
2018-03-11T14:14:52.954Z,16.30
2018-03-11T14:17:20.895Z,16.30
2018-03-11T14:19:48.065Z,16.20
2018-03-11T14:22:16.001Z,16.20
2018-03-11T14:24:43.917Z,16.20
2018-03-11T14:27:11.841Z,16.20
2018-03-11T14:29:39.753Z,16.20
2018-03-11T14:32:07.873Z,16.20
2018-03-11T14:34:36.015Z,16.10
2018-03-11T14:37:04.066Z,16.10
2018-03-11T14:39:31.964Z,16.10
2018-03-11T14:42:00.678Z,16.10
2018-03-11T14:44:28.585Z,16.10
2018-03-11T14:46:56.657Z,16.00
2018-03-11T14:49:24.689Z,16.00
2018-03-11T14:51:51.824Z,16.00
2018-03-11T14:54:19.724Z,16.00
2018-03-11T14:56:47.644Z,16.00
2018-03-11T14:59:15.717Z,16.00
2018-03-11T15:01:43.757Z,16.00
2018-03-11T15:04:11.733Z,16.00
2018-03-11T15:06:38.872Z,16.00
2018-03-11T15:09:06.013Z,16.00
2018-03-11T15:11:33.973Z,15.90
2018-03-11T15:14:02.645Z,15.90
2018-03-11T15:16:31.500Z,15.90
2018-03-11T15:18:59.545Z,15.90
2018-03-11T15:21:26.677Z,16.00
2018-03-11T15:23:53.813Z,15.90
2018-03-11T15:26:20.969Z,16.00
2018-03-11T15:28:48.892Z,15.90
2018-03-11T15:31:16.932Z,16.00
2018-03-11T15:33:44.065Z,15.90
2018-03-11T15:36:11.198Z,15.90
2018-03-11T15:38:39.107Z,15.90
2018-03-11T15:41:06.252Z,15.90
2018-03-11T15:43:33.389Z,15.90
2018-03-11T15:46:00.571Z,15.80
2018-03-11T15:48:27.704Z,15.80
2018-03-11T15:50:55.679Z,15.90
2018-03-11T15:53:22.813Z,15.90
2018-03-11T15:55:50.901Z,15.90
2018-03-11T15:58:18.033Z,15.90
2018-03-11T16:00:45.173Z,15.90
2018-03-11T16:03:12.327Z,15.90
2018-03-11T16:05:40.381Z,15.90
2018-03-11T16:08:08.282Z,15.80
2018-03-11T16:10:35.439Z,15.80
2018-03-11T16:13:02.569Z,15.80
2018-03-11T16:15:29.697Z,15.80
2018-03-11T16:17:57.600Z,15.80
2018-03-11T16:20:24.738Z,15.80
2018-03-11T16:22:51.991Z,15.80
2018-03-11T16:25:19.126Z,15.80
2018-03-11T16:27:47.031Z,15.80
2018-03-11T16:30:14.172Z,15.80
2018-03-11T16:32:41.338Z,15.80
2018-03-11T16:35:08.469Z,15.80
2018-03-11T16:37:35.597Z,15.80
2018-03-11T16:40:04.307Z,15.80
2018-03-11T16:42:31.472Z,15.80
2018-03-11T16:44:59.422Z,15.80
2018-03-11T16:47:26.569Z,15.70
2018-03-11T16:49:55.412Z,15.70
2018-03-11T16:52:22.548Z,15.70
2018-03-11T16:54:49.693Z,15.70
2018-03-11T16:57:16.836Z,15.80
2018-03-11T16:59:43.966Z,15.70
2018-03-11T17:02:11.145Z,15.70
2018-03-11T17:04:38.369Z,15.70
2018-03-11T17:07:06.322Z,15.80
2018-03-11T17:09:34.997Z,15.70
2018-03-11T17:12:03.106Z,15.70
2018-03-11T17:14:31.260Z,15.70
2018-03-11T17:16:59.166Z,15.70
2018-03-11T17:19:27.236Z,15.70
2018-03-11T17:21:54.908Z,15.70
2018-03-11T17:24:22.997Z,15.70
2018-03-11T17:26:51.129Z,15.70
2018-03-11T17:29:18.261Z,15.70
2018-03-11T17:31:46.166Z,15.70
2018-03-11T17:34:14.317Z,15.70
2018-03-11T17:36:42.242Z,15.70
2018-03-11T17:39:09.380Z,15.70
2018-03-11T17:41:37.450Z,15.80
2018-03-11T17:44:04.633Z,15.90
2018-03-11T17:46:32.603Z,16.00
2018-03-11T17:48:59.733Z,16.00
2018-03-11T17:51:27.789Z,16.00
2018-03-11T17:53:54.922Z,16.00
2018-03-11T17:56:23.069Z,16.00
2018-03-11T17:58:50.967Z,15.90
2018-03-11T18:01:18.161Z,15.90
2018-03-11T18:03:45.332Z,16.00
2018-03-11T18:06:12.500Z,15.90
2018-03-11T18:08:39.656Z,15.90
2018-03-11T18:11:06.802Z,15.90
2018-03-11T18:13:35.661Z,15.80
2018-03-11T18:16:02.797Z,15.80
2018-03-11T18:18:29.972Z,15.80
2018-03-11T18:20:57.101Z,15.80
2018-03-11T18:23:24.248Z,15.90
2018-03-11T18:25:51.377Z,15.80
2018-03-11T18:28:18.509Z,15.80
2018-03-11T18:30:45.680Z,15.80
2018-03-11T18:33:12.809Z,15.70
2018-03-11T18:35:39.978Z,15.70
2018-03-11T18:38:07.109Z,15.80
2018-03-11T18:40:34.275Z,15.70
2018-03-11T18:43:02.192Z,15.70
2018-03-11T18:45:30.969Z,15.70
2018-03-11T18:47:58.104Z,15.70
2018-03-11T18:50:25.313Z,15.70
2018-03-11T18:52:53.213Z,15.70
2018-03-11T18:55:20.349Z,15.70
2018-03-11T18:57:48.389Z,15.70
2018-03-11T19:00:17.146Z,15.80
2018-03-11T19:02:45.113Z,15.80
2018-03-11T19:05:13.729Z,15.80
2018-03-11T19:07:42.534Z,15.80
2018-03-11T19:10:09.680Z,15.80
2018-03-11T19:12:37.613Z,15.70
2018-03-11T19:15:04.745Z,15.70
2018-03-11T19:17:31.912Z,15.70
2018-03-11T19:20:00.597Z,15.60
2018-03-11T19:22:27.733Z,15.60
2018-03-11T19:24:54.869Z,15.70
2018-03-11T19:27:22.009Z,15.70
2018-03-11T19:29:49.140Z,15.60
2018-03-11T19:32:17.037Z,15.70
2018-03-11T19:34:44.174Z,15.60
2018-03-11T19:37:11.306Z,15.60
2018-03-11T19:39:39.253Z,15.60
2018-03-11T19:42:06.473Z,15.60
2018-03-11T19:44:33.605Z,15.60
2018-03-11T19:47:00.764Z,15.60
2018-03-11T19:49:27.902Z,15.60
2018-03-11T19:51:55.034Z,15.60
2018-03-11T19:54:22.934Z,15.60
2018-03-11T19:56:50.066Z,15.60
2018-03-11T19:59:17.206Z,15.60
2018-03-11T20:01:45.115Z,15.60
2018-03-11T20:04:12.249Z,15.60
2018-03-11T20:06:39.417Z,15.70
2018-03-11T20:09:06.561Z,15.60
2018-03-11T20:11:33.698Z,15.60
2018-03-11T20:14:00.833Z,15.60
2018-03-11T20:16:28.735Z,15.60
2018-03-11T20:18:55.873Z,15.60
2018-03-11T20:21:23.013Z,15.60
2018-03-11T20:23:50.921Z,15.70
2018-03-11T20:26:18.058Z,15.70
2018-03-11T20:28:45.198Z,15.70
2018-03-11T20:31:12.461Z,15.70
2018-03-11T20:33:39.601Z,15.70
2018-03-11T20:36:07.505Z,15.70
2018-03-11T20:38:35.430Z,15.70
2018-03-11T20:41:02.561Z,15.70
2018-03-11T20:43:30.660Z,15.70
2018-03-11T20:45:57.857Z,15.70
2018-03-11T20:48:24.992Z,15.70
2018-03-11T20:50:52.130Z,15.70
2018-03-11T20:53:19.272Z,15.70
2018-03-11T20:55:46.640Z,15.70
2018-03-11T20:58:13.779Z,15.70
2018-03-11T21:00:40.913Z,15.70
2018-03-11T21:03:08.053Z,15.70
2018-03-11T21:05:35.953Z,15.60
2018-03-11T21:08:03.099Z,15.60
2018-03-11T21:10:30.232Z,15.60
2018-03-11T21:12:57.372Z,15.60
2018-03-11T21:15:24.528Z,15.60
2018-03-11T21:17:51.697Z,15.60
2018-03-11T21:20:18.828Z,15.60
2018-03-11T21:22:46.727Z,15.60
2018-03-11T21:25:13.958Z,15.60
2018-03-11T21:27:41.259Z,15.60
2018-03-11T21:30:08.405Z,15.60
2018-03-11T21:32:35.676Z,15.70
2018-03-11T21:35:03.728Z,15.90
2018-03-11T21:37:31.665Z,15.90
2018-03-11T21:39:59.581Z,16.00
2018-03-11T21:42:26.711Z,16.00
2018-03-11T21:44:53.876Z,16.00
2018-03-11T21:47:21.004Z,16.00
2018-03-11T21:49:48.165Z,16.00
2018-03-11T21:52:15.305Z,15.90
2018-03-11T21:54:42.448Z,15.90
2018-03-11T21:57:09.585Z,15.90
2018-03-11T21:59:36.720Z,15.90
2018-03-11T22:02:04.622Z,15.90
2018-03-11T22:04:31.752Z,15.80
2018-03-11T22:06:58.922Z,15.80
2018-03-11T22:09:26.050Z,15.80
2018-03-11T22:11:54.116Z,15.80
2018-03-11T22:14:22.023Z,15.80
2018-03-11T22:16:49.977Z,15.80
2018-03-11T22:19:17.881Z,15.80
2018-03-11T22:21:45.011Z,15.80
2018-03-11T22:24:12.157Z,15.80
2018-03-11T22:26:39.297Z,15.70
2018-03-11T22:29:06.465Z,15.70
2018-03-11T22:31:34.540Z,15.60
2018-03-11T22:34:04.902Z,15.60
2018-03-11T22:36:34.178Z,15.60
2018-03-11T22:39:01.310Z,15.60
2018-03-11T22:41:28.444Z,15.60
2018-03-11T22:43:55.585Z,15.60
2018-03-11T22:46:22.717Z,15.70
2018-03-11T22:48:50.612Z,15.70
2018-03-11T22:51:17.748Z,15.70
2018-03-11T22:53:45.685Z,15.70
2018-03-11T22:56:12.820Z,15.70
2018-03-11T22:58:40.797Z,15.70
2018-03-11T23:01:07.970Z,15.70
2018-03-11T23:03:35.894Z,15.70
2018-03-11T23:06:03.964Z,15.60
2018-03-11T23:08:31.104Z,15.60
2018-03-11T23:10:59.061Z,15.60
2018-03-11T23:13:26.192Z,15.60
2018-03-11T23:15:54.130Z,15.60
2018-03-11T23:18:21.261Z,15.60
2018-03-11T23:20:48.437Z,15.60
2018-03-11T23:23:15.568Z,15.60
2018-03-11T23:25:43.538Z,15.60
2018-03-11T23:28:10.674Z,15.60
2018-03-11T23:30:37.842Z,15.60
2018-03-11T23:33:05.753Z,15.60
2018-03-11T23:35:34.630Z,15.60
2018-03-11T23:38:01.802Z,15.60
2018-03-11T23:40:29.710Z,15.60
2018-03-11T23:42:56.849Z,15.60
2018-03-11T23:45:23.984Z,15.60
2018-03-11T23:47:51.118Z,15.60
2018-03-11T23:50:19.014Z,15.60
2018-03-11T23:52:46.158Z,15.60
2018-03-11T23:55:13.295Z,15.60
2018-03-11T23:57:42.102Z,15.60
